sensor_id;sensor_type;location;lat;lon;timestamp;temperature;humidity
28524;DHT22;15734;50.904;6.922;2022-09-12T00:01:55;13.40;99.90
28524;DHT22;15734;50.904;6.922;2022-09-12T00:04:21;13.40;99.90
28524;DHT22;15734;50.904;6.922;2022-09-12T00:06:47;13.50;99.90
28524;DHT22;15734;50.904;6.922;2022-09-12T00:09:13;13.50;99.90
28524;DHT22;15734;50.904;6.922;2022-09-12T00:11:41;13.40;99.90
28524;DHT22;15734;50.904;6.922;2022-09-12T00:14:08;13.50;99.90
28524;DHT22;15734;50.904;6.922;2022-09-12T00:16:35;13.50;99.90
28524;DHT22;15734;50.904;6.922;2022-09-12T00:19:01;13.50;99.90
28524;DHT22;15734;50.904;6.922;2022-09-12T00:21:28;13.50;99.90
28524;DHT22;15734;50.904;6.922;2022-09-12T00:23:54;13.60;99.90
28524;DHT22;15734;50.904;6.922;2022-09-12T00:26:20;13.60;99.90
28524;DHT22;15734;50.904;6.922;2022-09-12T00:28:46;13.50;99.90
28524;DHT22;15734;50.904;6.922;2022-09-12T00:31:15;13.40;99.90
28524;DHT22;15734;50.904;6.922;2022-09-12T00:33:41;13.40;99.90
28524;DHT22;15734;50.904;6.922;2022-09-12T00:36:12;13.40;99.90
28524;DHT22;15734;50.904;6.922;2022-09-12T00:38:39;13.40;99.90
28524;DHT22;15734;50.904;6.922;2022-09-12T00:41:09;13.30;99.90
28524;DHT22;15734;50.904;6.922;2022-09-12T00:43:42;13.20;99.90
28524;DHT22;15734;50.904;6.922;2022-09-12T00:48:48;13.20;99.90
28524;DHT22;15734;50.904;6.922;2022-09-12T00:51:14;13.10;99.90
28524;DHT22;15734;50.904;6.922;2022-09-12T00:53:42;13.10;99.90
28524;DHT22;15734;50.904;6.922;2022-09-12T00:56:09;13.10;99.90
28524;DHT22;15734;50.904;6.922;2022-09-12T00:58:40;13.10;99.90
28524;DHT22;15734;50.904;6.922;2022-09-12T01:01:07;13.10;99.90
28524;DHT22;15734;50.904;6.922;2022-09-12T01:03:32;13.10;99.90
28524;DHT22;15734;50.904;6.922;2022-09-12T01:06:26;13.10;99.90
28524;DHT22;15734;50.904;6.922;2022-09-12T01:08:53;13.00;99.90
28524;DHT22;15734;50.904;6.922;2022-09-12T01:11:20;13.00;99.90
28524;DHT22;15734;50.904;6.922;2022-09-12T01:13:47;13.00;99.90
28524;DHT22;15734;50.904;6.922;2022-09-12T01:16:14;13.00;99.90
28524;DHT22;15734;50.904;6.922;2022-09-12T01:24:29;13.00;99.90
28524;DHT22;15734;50.904;6.922;2022-09-12T01:32:39;13.00;99.90
28524;DHT22;15734;50.904;6.922;2022-09-12T01:35:23;13.00;99.90
28524;DHT22;15734;50.904;6.922;2022-09-12T01:40:44;13.10;99.90
28524;DHT22;15734;50.904;6.922;2022-09-12T01:43:27;13.00;99.90
28524;DHT22;15734;50.904;6.922;2022-09-12T01:46:14;13.10;99.90
28524;DHT22;15734;50.904;6.922;2022-09-12T01:51:38;13.00;99.90
28524;DHT22;15734;50.904;6.922;2022-09-12T01:54:24;12.90;99.90
28524;DHT22;15734;50.904;6.922;2022-09-12T01:56:52;12.90;99.90
28524;DHT22;15734;50.904;6.922;2022-09-12T01:59:35;12.90;99.90
28524;DHT22;15734;50.904;6.922;2022-09-12T02:05:14;12.90;99.90
28524;DHT22;15734;50.904;6.922;2022-09-12T02:10:32;12.90;99.90
28524;DHT22;15734;50.904;6.922;2022-09-12T02:13:14;12.80;99.90
28524;DHT22;15734;50.904;6.922;2022-09-12T02:15:53;12.90;99.90
28524;DHT22;15734;50.904;6.922;2022-09-12T02:18:20;12.90;99.90
28524;DHT22;15734;50.904;6.922;2022-09-12T02:20:47;12.80;99.90
28524;DHT22;15734;50.904;6.922;2022-09-12T02:23:18;12.80;99.90
28524;DHT22;15734;50.904;6.922;2022-09-12T02:25:47;12.80;99.90
28524;DHT22;15734;50.904;6.922;2022-09-12T02:28:34;12.80;99.90
28524;DHT22;15734;50.904;6.922;2022-09-12T02:33:43;12.70;99.90
28524;DHT22;15734;50.904;6.922;2022-09-12T02:36:38;12.60;99.90
28524;DHT22;15734;50.904;6.922;2022-09-12T02:39:08;12.50;99.90
28524;DHT22;15734;50.904;6.922;2022-09-12T02:41:34;12.50;99.90
28524;DHT22;15734;50.904;6.922;2022-09-12T02:44:00;12.50;99.90
28524;DHT22;15734;50.904;6.922;2022-09-12T02:46:40;12.50;99.90
28524;DHT22;15734;50.904;6.922;2022-09-12T02:49:07;12.40;99.90
28524;DHT22;15734;50.904;6.922;2022-09-12T02:51:32;12.50;99.90
28524;DHT22;15734;50.904;6.922;2022-09-12T02:53:58;12.50;99.90
28524;DHT22;15734;50.904;6.922;2022-09-12T02:56:27;12.40;99.90
28524;DHT22;15734;50.904;6.922;2022-09-12T02:58:58;12.40;99.90
28524;DHT22;15734;50.904;6.922;2022-09-12T03:10:18;12.40;99.90
28524;DHT22;15734;50.904;6.922;2022-09-12T03:29:11;12.50;99.90
28524;DHT22;15734;50.904;6.922;2022-09-12T03:31:51;12.50;99.90
28524;DHT22;15734;50.904;6.922;2022-09-12T03:34:17;12.50;99.90
28524;DHT22;15734;50.904;6.922;2022-09-12T03:36:43;12.60;99.90
28524;DHT22;15734;50.904;6.922;2022-09-12T03:39:09;12.60;99.90
28524;DHT22;15734;50.904;6.922;2022-09-12T03:41:34;12.60;99.90
28524;DHT22;15734;50.904;6.922;2022-09-12T03:44:00;12.60;99.90
28524;DHT22;15734;50.904;6.922;2022-09-12T03:46:26;12.50;99.90
28524;DHT22;15734;50.904;6.922;2022-09-12T03:48:51;12.40;99.90
28524;DHT22;15734;50.904;6.922;2022-09-12T03:51:17;12.40;99.90
28524;DHT22;15734;50.904;6.922;2022-09-12T03:53:42;12.40;99.90
28524;DHT22;15734;50.904;6.922;2022-09-12T03:56:09;12.30;99.90
28524;DHT22;15734;50.904;6.922;2022-09-12T03:58:35;12.30;99.90
28524;DHT22;15734;50.904;6.922;2022-09-12T04:01:16;12.30;99.90
28524;DHT22;15734;50.904;6.922;2022-09-12T04:03:44;12.20;99.90
28524;DHT22;15734;50.904;6.922;2022-09-12T04:06:12;12.20;99.90
28524;DHT22;15734;50.904;6.922;2022-09-12T04:08:39;12.20;99.90
28524;DHT22;15734;50.904;6.922;2022-09-12T04:11:07;12.20;99.90
28524;DHT22;15734;50.904;6.922;2022-09-12T04:13:35;12.20;99.90
28524;DHT22;15734;50.904;6.922;2022-09-12T04:16:01;12.20;99.90
28524;DHT22;15734;50.904;6.922;2022-09-12T04:18:27;12.20;99.90
28524;DHT22;15734;50.904;6.922;2022-09-12T04:20:53;12.20;99.90
28524;DHT22;15734;50.904;6.922;2022-09-12T04:23:18;12.30;99.90
28524;DHT22;15734;50.904;6.922;2022-09-12T04:25:51;12.30;99.90
28524;DHT22;15734;50.904;6.922;2022-09-12T04:28:17;12.30;99.90
28524;DHT22;15734;50.904;6.922;2022-09-12T04:30:42;12.30;99.90
28524;DHT22;15734;50.904;6.922;2022-09-12T04:33:08;12.20;99.90
28524;DHT22;15734;50.904;6.922;2022-09-12T04:35:34;12.30;99.90
28524;DHT22;15734;50.904;6.922;2022-09-12T04:38:00;12.30;99.90
28524;DHT22;15734;50.904;6.922;2022-09-12T04:40:28;12.30;99.90
28524;DHT22;15734;50.904;6.922;2022-09-12T04:42:54;12.30;99.90
28524;DHT22;15734;50.904;6.922;2022-09-12T04:45:20;12.40;99.90
28524;DHT22;15734;50.904;6.922;2022-09-12T04:47:46;12.40;99.90
28524;DHT22;15734;50.904;6.922;2022-09-12T04:50:11;12.40;99.90
28524;DHT22;15734;50.904;6.922;2022-09-12T04:52:39;12.40;99.90
28524;DHT22;15734;50.904;6.922;2022-09-12T04:55:05;12.50;99.90
28524;DHT22;15734;50.904;6.922;2022-09-12T04:57:31;12.50;99.90
28524;DHT22;15734;50.904;6.922;2022-09-12T04:59:56;12.50;99.90
28524;DHT22;15734;50.904;6.922;2022-09-12T05:02:23;12.40;99.90
28524;DHT22;15734;50.904;6.922;2022-09-12T05:04:48;12.50;99.90
28524;DHT22;15734;50.904;6.922;2022-09-12T05:07:14;12.40;99.90
28524;DHT22;15734;50.904;6.922;2022-09-12T05:09:39;12.50;99.90
28524;DHT22;15734;50.904;6.922;2022-09-12T05:12:05;12.50;99.90
28524;DHT22;15734;50.904;6.922;2022-09-12T05:14:32;12.60;99.90
28524;DHT22;15734;50.904;6.922;2022-09-12T05:16:58;12.60;99.90
28524;DHT22;15734;50.904;6.922;2022-09-12T05:19:26;12.60;99.90
28524;DHT22;15734;50.904;6.922;2022-09-12T05:21:52;12.60;99.90
28524;DHT22;15734;50.904;6.922;2022-09-12T05:24:17;12.70;99.90
28524;DHT22;15734;50.904;6.922;2022-09-12T05:26:43;12.70;99.90
28524;DHT22;15734;50.904;6.922;2022-09-12T05:29:08;12.70;99.90
28524;DHT22;15734;50.904;6.922;2022-09-12T05:31:34;12.70;99.90
28524;DHT22;15734;50.904;6.922;2022-09-12T05:34:00;12.80;99.90
28524;DHT22;15734;50.904;6.922;2022-09-12T05:36:27;12.80;99.90
28524;DHT22;15734;50.904;6.922;2022-09-12T05:38:53;12.90;99.90
28524;DHT22;15734;50.904;6.922;2022-09-12T05:41:22;12.90;99.90
28524;DHT22;15734;50.904;6.922;2022-09-12T05:43:55;12.90;99.90
28524;DHT22;15734;50.904;6.922;2022-09-12T05:46:23;13.00;99.90
28524;DHT22;15734;50.904;6.922;2022-09-12T05:48:50;13.00;99.90
28524;DHT22;15734;50.904;6.922;2022-09-12T05:51:24;13.10;99.90
28524;DHT22;15734;50.904;6.922;2022-09-12T05:53:56;13.10;99.90
28524;DHT22;15734;50.904;6.922;2022-09-12T05:56:24;13.20;99.90
28524;DHT22;15734;50.904;6.922;2022-09-12T05:58:58;13.20;99.90
28524;DHT22;15734;50.904;6.922;2022-09-12T06:01:24;13.30;99.90
28524;DHT22;15734;50.904;6.922;2022-09-12T06:03:53;13.30;99.90
28524;DHT22;15734;50.904;6.922;2022-09-12T06:06:21;13.40;99.90
28524;DHT22;15734;50.904;6.922;2022-09-12T06:08:49;13.40;99.90
28524;DHT22;15734;50.904;6.922;2022-09-12T06:11:18;13.40;99.90
28524;DHT22;15734;50.904;6.922;2022-09-12T06:13:44;13.50;99.90
28524;DHT22;15734;50.904;6.922;2022-09-12T06:16:15;13.60;99.90
28524;DHT22;15734;50.904;6.922;2022-09-12T06:18:50;13.60;99.90
28524;DHT22;15734;50.904;6.922;2022-09-12T06:21:16;13.60;99.90
28524;DHT22;15734;50.904;6.922;2022-09-12T06:23:42;13.70;99.90
28524;DHT22;15734;50.904;6.922;2022-09-12T06:26:09;13.70;99.90
28524;DHT22;15734;50.904;6.922;2022-09-12T06:28:37;13.70;99.90
28524;DHT22;15734;50.904;6.922;2022-09-12T06:31:05;13.80;99.90
28524;DHT22;15734;50.904;6.922;2022-09-12T06:33:34;13.80;99.90
28524;DHT22;15734;50.904;6.922;2022-09-12T06:36:14;13.90;99.90
28524;DHT22;15734;50.904;6.922;2022-09-12T06:38:40;14.00;99.90
28524;DHT22;15734;50.904;6.922;2022-09-12T06:41:08;14.00;99.90
28524;DHT22;15734;50.904;6.922;2022-09-12T06:43:35;14.10;99.90
28524;DHT22;15734;50.904;6.922;2022-09-12T06:46:01;14.20;99.90
28524;DHT22;15734;50.904;6.922;2022-09-12T06:48:27;14.30;99.90
28524;DHT22;15734;50.904;6.922;2022-09-12T06:51:01;14.30;99.90
28524;DHT22;15734;50.904;6.922;2022-09-12T06:53:28;14.40;99.90
28524;DHT22;15734;50.904;6.922;2022-09-12T06:56:05;14.40;99.90
28524;DHT22;15734;50.904;6.922;2022-09-12T06:58:32;14.50;99.90
28524;DHT22;15734;50.904;6.922;2022-09-12T07:01:03;14.60;99.90
28524;DHT22;15734;50.904;6.922;2022-09-12T07:03:29;14.70;99.90
28524;DHT22;15734;50.904;6.922;2022-09-12T07:05:55;14.70;99.90
28524;DHT22;15734;50.904;6.922;2022-09-12T07:08:20;14.80;99.90
28524;DHT22;15734;50.904;6.922;2022-09-12T07:10:46;14.80;99.90
28524;DHT22;15734;50.904;6.922;2022-09-12T07:13:11;14.90;99.90
28524;DHT22;15734;50.904;6.922;2022-09-12T07:15:38;15.00;99.90
28524;DHT22;15734;50.904;6.922;2022-09-12T07:18:03;15.10;99.90
28524;DHT22;15734;50.904;6.922;2022-09-12T07:20:29;15.10;99.90
28524;DHT22;15734;50.904;6.922;2022-09-12T07:22:57;15.10;99.90
28524;DHT22;15734;50.904;6.922;2022-09-12T07:25:23;15.20;99.90
28524;DHT22;15734;50.904;6.922;2022-09-12T07:27:48;15.20;99.90
28524;DHT22;15734;50.904;6.922;2022-09-12T07:30:14;15.30;99.90
28524;DHT22;15734;50.904;6.922;2022-09-12T07:32:40;15.40;99.90
28524;DHT22;15734;50.904;6.922;2022-09-12T07:35:06;15.40;99.90
28524;DHT22;15734;50.904;6.922;2022-09-12T07:37:31;15.50;99.90
28524;DHT22;15734;50.904;6.922;2022-09-12T07:39:57;15.60;99.90
28524;DHT22;15734;50.904;6.922;2022-09-12T07:42:23;15.60;99.90
28524;DHT22;15734;50.904;6.922;2022-09-12T07:44:49;15.70;99.90
28524;DHT22;15734;50.904;6.922;2022-09-12T07:47:16;15.80;99.90
28524;DHT22;15734;50.904;6.922;2022-09-12T07:49:42;15.80;99.90
28524;DHT22;15734;50.904;6.922;2022-09-12T07:52:08;15.90;99.90
28524;DHT22;15734;50.904;6.922;2022-09-12T07:54:34;15.90;99.90
28524;DHT22;15734;50.904;6.922;2022-09-12T07:56:59;16.00;99.90
28524;DHT22;15734;50.904;6.922;2022-09-12T07:59:25;16.10;99.90
28524;DHT22;15734;50.904;6.922;2022-09-12T08:01:50;16.20;99.90
28524;DHT22;15734;50.904;6.922;2022-09-12T08:04:16;16.20;99.90
28524;DHT22;15734;50.904;6.922;2022-09-12T08:06:41;16.30;99.90
28524;DHT22;15734;50.904;6.922;2022-09-12T08:09:07;16.40;99.90
28524;DHT22;15734;50.904;6.922;2022-09-12T08:11:32;16.50;99.90
28524;DHT22;15734;50.904;6.922;2022-09-12T08:13:58;16.60;99.90
28524;DHT22;15734;50.904;6.922;2022-09-12T08:16:28;16.80;99.90
28524;DHT22;15734;50.904;6.922;2022-09-12T08:18:54;16.90;99.90
28524;DHT22;15734;50.904;6.922;2022-09-12T08:21:25;17.00;99.90
28524;DHT22;15734;50.904;6.922;2022-09-12T08:23:52;17.10;99.90
28524;DHT22;15734;50.904;6.922;2022-09-12T08:26:19;17.20;99.90
28524;DHT22;15734;50.904;6.922;2022-09-12T08:28:45;17.30;99.90
28524;DHT22;15734;50.904;6.922;2022-09-12T08:31:13;17.30;99.90
28524;DHT22;15734;50.904;6.922;2022-09-12T08:33:39;17.40;99.90
28524;DHT22;15734;50.904;6.922;2022-09-12T08:38:36;17.50;99.90
28524;DHT22;15734;50.904;6.922;2022-09-12T08:46:35;17.60;99.90
28524;DHT22;15734;50.904;6.922;2022-09-12T08:49:03;17.60;99.90
28524;DHT22;15734;50.904;6.922;2022-09-12T08:51:32;17.60;99.90
28524;DHT22;15734;50.904;6.922;2022-09-12T08:54:00;17.70;99.90
28524;DHT22;15734;50.904;6.922;2022-09-12T08:56:28;17.70;99.90
28524;DHT22;15734;50.904;6.922;2022-09-12T08:58:56;17.90;99.90
28524;DHT22;15734;50.904;6.922;2022-09-12T09:01:38;18.00;99.90
28524;DHT22;15734;50.904;6.922;2022-09-12T09:04:36;18.10;99.90
28524;DHT22;15734;50.904;6.922;2022-09-12T09:07:52;18.20;99.90
28524;DHT22;15734;50.904;6.922;2022-09-12T09:16:43;18.70;99.90
28524;DHT22;15734;50.904;6.922;2022-09-12T09:19:42;18.90;99.90
28524;DHT22;15734;50.904;6.922;2022-09-12T09:22:21;19.10;99.90
28524;DHT22;15734;50.904;6.922;2022-09-12T09:24:56;19.30;99.90
28524;DHT22;15734;50.904;6.922;2022-09-12T09:27:40;19.50;99.90
28524;DHT22;15734;50.904;6.922;2022-09-12T09:30:18;19.70;99.90
28524;DHT22;15734;50.904;6.922;2022-09-12T09:32:48;19.70;99.90
28524;DHT22;15734;50.904;6.922;2022-09-12T09:38:01;20.00;99.90
28524;DHT22;15734;50.904;6.922;2022-09-12T09:40:41;20.00;99.90
28524;DHT22;15734;50.904;6.922;2022-09-12T09:43:21;20.10;99.90
28524;DHT22;15734;50.904;6.922;2022-09-12T09:45:49;20.30;99.90
28524;DHT22;15734;50.904;6.922;2022-09-12T09:48:30;20.50;99.90
28524;DHT22;15734;50.904;6.922;2022-09-12T09:50:58;20.70;99.90
28524;DHT22;15734;50.904;6.922;2022-09-12T09:53:55;20.90;99.90
28524;DHT22;15734;50.904;6.922;2022-09-12T09:56:33;21.00;99.90
28524;DHT22;15734;50.904;6.922;2022-09-12T09:59:21;21.30;99.90
28524;DHT22;15734;50.904;6.922;2022-09-12T10:01:57;21.60;99.90
28524;DHT22;15734;50.904;6.922;2022-09-12T10:04:26;21.80;99.90
28524;DHT22;15734;50.904;6.922;2022-09-12T10:07:00;22.00;99.90
28524;DHT22;15734;50.904;6.922;2022-09-12T10:09:31;22.10;99.90
28524;DHT22;15734;50.904;6.922;2022-09-12T10:11:58;22.30;99.90
28524;DHT22;15734;50.904;6.922;2022-09-12T10:14:33;22.60;99.90
28524;DHT22;15734;50.904;6.922;2022-09-12T10:20:01;22.70;99.90
28524;DHT22;15734;50.904;6.922;2022-09-12T10:22:28;22.90;99.90
28524;DHT22;15734;50.904;6.922;2022-09-12T10:24:56;23.10;99.90
28524;DHT22;15734;50.904;6.922;2022-09-12T10:27:27;23.20;99.90
28524;DHT22;15734;50.904;6.922;2022-09-12T10:30:02;23.20;99.90
28524;DHT22;15734;50.904;6.922;2022-09-12T10:32:38;23.40;99.90
28524;DHT22;15734;50.904;6.922;2022-09-12T10:38:01;23.70;99.90
28524;DHT22;15734;50.904;6.922;2022-09-12T10:40:38;23.60;99.90
28524;DHT22;15734;50.904;6.922;2022-09-12T10:43:37;23.90;99.90
28524;DHT22;15734;50.904;6.922;2022-09-12T10:46:27;23.90;99.90
28524;DHT22;15734;50.904;6.922;2022-09-12T10:49:16;24.10;99.90
28524;DHT22;15734;50.904;6.922;2022-09-12T10:51:44;24.20;99.90
28524;DHT22;15734;50.904;6.922;2022-09-12T10:54:10;24.20;99.90
28524;DHT22;15734;50.904;6.922;2022-09-12T11:02:45;24.40;99.90
28524;DHT22;15734;50.904;6.922;2022-09-12T11:05:47;24.40;99.90
28524;DHT22;15734;50.904;6.922;2022-09-12T11:14:24;25.10;99.90
28524;DHT22;15734;50.904;6.922;2022-09-12T11:17:01;25.10;99.90
28524;DHT22;15734;50.904;6.922;2022-09-12T11:30:17;25.60;99.90
28524;DHT22;15734;50.904;6.922;2022-09-12T11:32:57;25.90;99.90
28524;DHT22;15734;50.904;6.922;2022-09-12T11:35:31;25.60;99.90
28524;DHT22;15734;50.904;6.922;2022-09-12T11:41:06;25.70;99.90
28524;DHT22;15734;50.904;6.922;2022-09-12T11:46:39;25.70;99.90
28524;DHT22;15734;50.904;6.922;2022-09-12T11:59:57;26.90;99.90
28524;DHT22;15734;50.904;6.922;2022-09-12T12:08:01;26.80;99.90
28524;DHT22;15734;50.904;6.922;2022-09-12T12:10:35;26.70;99.90
28524;DHT22;15734;50.904;6.922;2022-09-12T12:13:25;26.80;99.90
28524;DHT22;15734;50.904;6.922;2022-09-12T12:15:55;26.90;99.90
28524;DHT22;15734;50.904;6.922;2022-09-12T12:18:24;27.20;99.90
28524;DHT22;15734;50.904;6.922;2022-09-12T12:20:50;27.20;99.90
28524;DHT22;15734;50.904;6.922;2022-09-12T12:23:29;27.00;99.90
28524;DHT22;15734;50.904;6.922;2022-09-12T12:25:58;27.00;99.90
28524;DHT22;15734;50.904;6.922;2022-09-12T12:31:09;26.90;99.90
28524;DHT22;15734;50.904;6.922;2022-09-12T12:36:05;27.40;99.90
28524;DHT22;15734;50.904;6.922;2022-09-12T12:38:32;27.10;99.90
28524;DHT22;15734;50.904;6.922;2022-09-12T12:43:47;27.50;99.90
28524;DHT22;15734;50.904;6.922;2022-09-12T12:46:14;27.40;99.90
28524;DHT22;15734;50.904;6.922;2022-09-12T12:51:58;27.30;99.90
28524;DHT22;15734;50.904;6.922;2022-09-12T12:54:30;27.20;99.90
28524;DHT22;15734;50.904;6.922;2022-09-12T12:57:01;27.50;99.90
28524;DHT22;15734;50.904;6.922;2022-09-12T12:59:28;27.20;99.90
28524;DHT22;15734;50.904;6.922;2022-09-12T13:01:54;27.30;99.90
28524;DHT22;15734;50.904;6.922;2022-09-12T13:04:25;27.30;99.90
28524;DHT22;15734;50.904;6.922;2022-09-12T13:07:06;27.40;99.90
28524;DHT22;15734;50.904;6.922;2022-09-12T13:09:45;27.70;99.90
28524;DHT22;15734;50.904;6.922;2022-09-12T13:12:24;27.60;99.10
28524;DHT22;15734;50.904;6.922;2022-09-12T13:14:58;27.80;99.90
28524;DHT22;15734;50.904;6.922;2022-09-12T13:17:28;28.10;98.70
28524;DHT22;15734;50.904;6.922;2022-09-12T13:20:27;28.00;99.90
28524;DHT22;15734;50.904;6.922;2022-09-12T13:22:55;28.20;99.90
28524;DHT22;15734;50.904;6.922;2022-09-12T13:25:35;27.90;99.90
28524;DHT22;15734;50.904;6.922;2022-09-12T13:30:29;28.10;97.50
28524;DHT22;15734;50.904;6.922;2022-09-12T13:32:56;28.40;98.50
28524;DHT22;15734;50.904;6.922;2022-09-12T13:35:55;28.80;98.00
28524;DHT22;15734;50.904;6.922;2022-09-12T13:44:17;28.30;99.30
28524;DHT22;15734;50.904;6.922;2022-09-12T13:46:44;28.00;99.90
28524;DHT22;15734;50.904;6.922;2022-09-12T13:49:20;27.50;99.90
28524;DHT22;15734;50.904;6.922;2022-09-12T13:51:54;28.00;98.80
28524;DHT22;15734;50.904;6.922;2022-09-12T13:54:21;28.30;96.70
28524;DHT22;15734;50.904;6.922;2022-09-12T13:56:48;28.20;98.10
28524;DHT22;15734;50.904;6.922;2022-09-12T13:59:14;28.50;97.80
28524;DHT22;15734;50.904;6.922;2022-09-12T14:01:42;28.70;97.70
28524;DHT22;15734;50.904;6.922;2022-09-12T14:04:33;28.30;97.70
28524;DHT22;15734;50.904;6.922;2022-09-12T14:07:22;27.70;97.10
28524;DHT22;15734;50.904;6.922;2022-09-12T14:09:58;28.00;99.50
28524;DHT22;15734;50.904;6.922;2022-09-12T14:12:32;27.70;99.20
28524;DHT22;15734;50.904;6.922;2022-09-12T14:14:59;27.80;98.30
28524;DHT22;15734;50.904;6.922;2022-09-12T14:17:33;27.80;99.90
28524;DHT22;15734;50.904;6.922;2022-09-12T14:20:11;27.80;97.40
28524;DHT22;15734;50.904;6.922;2022-09-12T14:22:38;27.90;99.90
28524;DHT22;15734;50.904;6.922;2022-09-12T14:25:05;27.40;98.40
28524;DHT22;15734;50.904;6.922;2022-09-12T14:27:45;27.40;99.90
28524;DHT22;15734;50.904;6.922;2022-09-12T14:30:20;27.50;99.90
28524;DHT22;15734;50.904;6.922;2022-09-12T14:33:18;27.60;98.10
28524;DHT22;15734;50.904;6.922;2022-09-12T14:35:47;27.40;99.50
28524;DHT22;15734;50.904;6.922;2022-09-12T14:38:18;27.10;99.90
28524;DHT22;15734;50.904;6.922;2022-09-12T14:40:48;26.90;99.90
28524;DHT22;15734;50.904;6.922;2022-09-12T14:45:53;26.20;99.90
28524;DHT22;15734;50.904;6.922;2022-09-12T14:48:19;26.40;99.90
28524;DHT22;15734;50.904;6.922;2022-09-12T14:50:48;26.50;99.90
28524;DHT22;15734;50.904;6.922;2022-09-12T14:56:08;26.40;99.90
28524;DHT22;15734;50.904;6.922;2022-09-12T14:58:34;26.20;99.90
28524;DHT22;15734;50.904;6.922;2022-09-12T15:03:57;26.10;99.90
28524;DHT22;15734;50.904;6.922;2022-09-12T15:06:31;26.00;99.90
28524;DHT22;15734;50.904;6.922;2022-09-12T15:09:05;26.10;99.90
28524;DHT22;15734;50.904;6.922;2022-09-12T15:11:31;26.10;99.90
28524;DHT22;15734;50.904;6.922;2022-09-12T15:13:58;25.90;99.90
28524;DHT22;15734;50.904;6.922;2022-09-12T15:16:30;25.90;99.90
28524;DHT22;15734;50.904;6.922;2022-09-12T15:18:56;26.00;99.90
28524;DHT22;15734;50.904;6.922;2022-09-12T15:21:21;26.10;99.90
28524;DHT22;15734;50.904;6.922;2022-09-12T15:23:49;26.00;99.90
28524;DHT22;15734;50.904;6.922;2022-09-12T15:26:23;26.10;99.90
28524;DHT22;15734;50.904;6.922;2022-09-12T15:28:50;26.00;99.90
28524;DHT22;15734;50.904;6.922;2022-09-12T15:31:23;25.90;99.90
28524;DHT22;15734;50.904;6.922;2022-09-12T15:33:49;26.10;99.90
28524;DHT22;15734;50.904;6.922;2022-09-12T15:36:17;26.10;99.90
28524;DHT22;15734;50.904;6.922;2022-09-12T15:38:44;26.10;99.90
28524;DHT22;15734;50.904;6.922;2022-09-12T15:41:16;26.00;99.90
28524;DHT22;15734;50.904;6.922;2022-09-12T15:43:42;25.80;99.90
28524;DHT22;15734;50.904;6.922;2022-09-12T15:46:12;25.70;99.90
28524;DHT22;15734;50.904;6.922;2022-09-12T15:48:38;25.70;99.90
28524;DHT22;15734;50.904;6.922;2022-09-12T15:51:05;25.40;99.90
28524;DHT22;15734;50.904;6.922;2022-09-12T15:53:30;25.30;99.90
28524;DHT22;15734;50.904;6.922;2022-09-12T15:55:56;25.20;99.90
28524;DHT22;15734;50.904;6.922;2022-09-12T15:58:22;25.30;99.90
28524;DHT22;15734;50.904;6.922;2022-09-12T16:00:48;25.20;99.90
28524;DHT22;15734;50.904;6.922;2022-09-12T16:03:24;25.10;99.90
28524;DHT22;15734;50.904;6.922;2022-09-12T16:05:55;25.20;99.90
28524;DHT22;15734;50.904;6.922;2022-09-12T16:08:22;25.10;99.90
28524;DHT22;15734;50.904;6.922;2022-09-12T16:10:52;25.00;99.90
28524;DHT22;15734;50.904;6.922;2022-09-12T16:13:18;25.00;99.90
28524;DHT22;15734;50.904;6.922;2022-09-12T16:15:44;25.00;99.90
28524;DHT22;15734;50.904;6.922;2022-09-12T16:18:10;25.10;99.90
28524;DHT22;15734;50.904;6.922;2022-09-12T16:20:38;25.30;99.90
28524;DHT22;15734;50.904;6.922;2022-09-12T16:23:05;25.30;99.90
28524;DHT22;15734;50.904;6.922;2022-09-12T16:25:31;25.10;99.90
28524;DHT22;15734;50.904;6.922;2022-09-12T16:27:57;25.00;99.90
28524;DHT22;15734;50.904;6.922;2022-09-12T16:30:23;25.00;99.90
28524;DHT22;15734;50.904;6.922;2022-09-12T16:32:51;24.70;99.90
28524;DHT22;15734;50.904;6.922;2022-09-12T16:35:17;24.70;99.90
28524;DHT22;15734;50.904;6.922;2022-09-12T16:37:43;24.70;99.90
28524;DHT22;15734;50.904;6.922;2022-09-12T16:40:09;24.50;99.90
28524;DHT22;15734;50.904;6.922;2022-09-12T16:42:35;24.60;99.90
28524;DHT22;15734;50.904;6.922;2022-09-12T16:45:02;24.50;99.90
28524;DHT22;15734;50.904;6.922;2022-09-12T16:47:28;24.60;99.90
28524;DHT22;15734;50.904;6.922;2022-09-12T16:49:59;24.50;99.90
28524;DHT22;15734;50.904;6.922;2022-09-12T16:52:25;24.50;99.90
28524;DHT22;15734;50.904;6.922;2022-09-12T16:54:51;24.50;99.90
28524;DHT22;15734;50.904;6.922;2022-09-12T16:57:17;24.40;99.90
28524;DHT22;15734;50.904;6.922;2022-09-12T16:59:43;24.40;99.90
28524;DHT22;15734;50.904;6.922;2022-09-12T17:02:13;24.30;99.90
28524;DHT22;15734;50.904;6.922;2022-09-12T17:04:39;24.30;99.90
28524;DHT22;15734;50.904;6.922;2022-09-12T17:07:05;24.10;99.90
28524;DHT22;15734;50.904;6.922;2022-09-12T17:09:31;24.10;99.90
28524;DHT22;15734;50.904;6.922;2022-09-12T17:11:57;24.10;99.90
28524;DHT22;15734;50.904;6.922;2022-09-12T17:14:23;24.00;99.90
28524;DHT22;15734;50.904;6.922;2022-09-12T17:16:49;23.90;99.90
28524;DHT22;15734;50.904;6.922;2022-09-12T17:19:24;23.90;99.90
28524;DHT22;15734;50.904;6.922;2022-09-12T17:21:51;23.80;99.90
28524;DHT22;15734;50.904;6.922;2022-09-12T17:24:17;23.80;99.90
28524;DHT22;15734;50.904;6.922;2022-09-12T17:26:44;23.80;99.90
28524;DHT22;15734;50.904;6.922;2022-09-12T17:29:14;23.70;99.90
28524;DHT22;15734;50.904;6.922;2022-09-12T17:31:41;23.60;99.90
28524;DHT22;15734;50.904;6.922;2022-09-12T17:34:08;23.60;99.90
28524;DHT22;15734;50.904;6.922;2022-09-12T17:36:34;23.40;99.90
28524;DHT22;15734;50.904;6.922;2022-09-12T17:39:01;23.30;99.90
28524;DHT22;15734;50.904;6.922;2022-09-12T17:41:29;23.20;99.90
28524;DHT22;15734;50.904;6.922;2022-09-12T17:43:57;23.10;99.90
28524;DHT22;15734;50.904;6.922;2022-09-12T17:46:28;22.90;99.90
28524;DHT22;15734;50.904;6.922;2022-09-12T17:48:56;22.80;99.90
28524;DHT22;15734;50.904;6.922;2022-09-12T17:51:26;22.60;99.90
28524;DHT22;15734;50.904;6.922;2022-09-12T17:56:26;22.40;99.90
28524;DHT22;15734;50.904;6.922;2022-09-12T17:58:53;22.40;99.90
28524;DHT22;15734;50.904;6.922;2022-09-12T18:01:19;22.30;99.90
28524;DHT22;15734;50.904;6.922;2022-09-12T18:04:03;22.20;99.90
28524;DHT22;15734;50.904;6.922;2022-09-12T18:06:30;22.10;99.90
28524;DHT22;15734;50.904;6.922;2022-09-12T18:09:04;22.00;99.90
28524;DHT22;15734;50.904;6.922;2022-09-12T18:11:31;22.00;99.90
28524;DHT22;15734;50.904;6.922;2022-09-12T18:13:58;21.80;99.90
28524;DHT22;15734;50.904;6.922;2022-09-12T18:16:24;21.70;99.90
28524;DHT22;15734;50.904;6.922;2022-09-12T18:18:50;21.60;99.90
28524;DHT22;15734;50.904;6.922;2022-09-12T18:21:17;21.40;99.90